createdAt,value
2022-11-18T00:00:50.050Z,2.88
2022-11-18T00:03:17.538Z,2.92
2022-11-18T00:05:52.341Z,2.70
2022-11-18T00:08:19.069Z,2.97
2022-11-18T00:10:45.769Z,3.55
2022-11-18T00:13:31.631Z,2.65
2022-11-18T00:16:12.384Z,3.03
2022-11-18T00:18:39.607Z,3.28
2022-11-18T00:21:09.883Z,2.58
2022-11-18T00:23:38.735Z,2.90
2022-11-18T00:26:10.000Z,2.90
2022-11-18T00:28:37.344Z,3.13
2022-11-18T00:31:12.346Z,2.97
2022-11-18T00:33:39.827Z,2.55
2022-11-18T00:36:09.822Z,2.70
2022-11-18T00:38:38.217Z,3.00
2022-11-18T00:41:13.391Z,3.17
2022-11-18T00:43:40.448Z,2.95
2022-11-18T00:46:10.002Z,3.13
2022-11-18T00:48:37.332Z,2.87
2022-11-18T00:51:08.828Z,3.05
2022-11-18T00:53:35.536Z,2.88
2022-11-18T00:56:02.284Z,2.92
2022-11-18T00:58:30.129Z,3.05
2022-11-18T01:00:58.304Z,3.20
2022-11-18T01:03:28.966Z,3.10
2022-11-18T01:05:58.765Z,3.20
2022-11-18T01:08:28.251Z,2.70
2022-11-18T01:11:17.860Z,2.73
2022-11-18T01:13:44.562Z,3.50
2022-11-18T01:16:19.224Z,3.10
2022-11-18T01:18:45.978Z,3.20
2022-11-18T01:21:12.743Z,3.28
2022-11-18T01:23:39.510Z,3.38
2022-11-18T01:26:09.695Z,3.60
2022-11-18T01:28:37.913Z,2.67
2022-11-18T01:31:11.270Z,3.15
2022-11-18T01:33:37.988Z,3.20
2022-11-18T01:36:25.809Z,3.35
2022-11-18T01:38:52.734Z,3.40
2022-11-18T01:41:21.863Z,3.08
2022-11-18T01:43:58.710Z,2.63
2022-11-18T01:46:28.087Z,3.15
2022-11-18T01:49:00.952Z,3.53
2022-11-18T01:51:32.430Z,3.35
2022-11-18T01:54:09.552Z,3.35
2022-11-18T01:56:46.080Z,3.08
2022-11-18T01:59:17.716Z,3.00
2022-11-18T02:01:46.397Z,2.95
2022-11-18T02:04:15.254Z,3.15
2022-11-18T02:06:47.075Z,2.97
2022-11-18T02:09:16.311Z,3.22
2022-11-18T02:11:56.196Z,3.40
2022-11-18T02:14:34.266Z,3.58
2022-11-18T02:17:12.836Z,3.33
2022-11-18T02:19:48.337Z,3.40
2022-11-18T02:22:50.016Z,3.67
2022-11-18T02:25:31.938Z,3.50
2022-11-18T02:28:16.532Z,3.45
2022-11-18T02:30:57.492Z,3.55
2022-11-18T02:33:33.885Z,3.90
2022-11-18T02:36:09.791Z,3.25
2022-11-18T02:38:48.403Z,3.33
2022-11-18T02:41:23.657Z,3.17
2022-11-18T02:43:54.442Z,3.08
2022-11-18T02:46:30.191Z,3.63
2022-11-18T02:48:57.257Z,3.42
2022-11-18T02:51:28.732Z,3.33
2022-11-18T02:53:59.537Z,3.30
2022-11-18T02:56:27.321Z,3.22
2022-11-18T02:58:54.048Z,3.17
2022-11-18T03:01:30.405Z,3.40
2022-11-18T03:03:58.447Z,3.50
2022-11-18T03:06:33.716Z,3.40
2022-11-18T03:09:15.696Z,3.55
2022-11-18T03:12:00.775Z,3.50
2022-11-18T03:14:42.509Z,3.97
2022-11-18T03:17:31.685Z,3.38
2022-11-18T03:20:15.321Z,3.25
2022-11-18T03:22:54.161Z,4.00
2022-11-18T03:25:21.252Z,3.47
2022-11-18T03:28:11.022Z,3.10
2022-11-18T03:30:43.614Z,3.38
2022-11-18T03:33:14.339Z,3.17
2022-11-18T03:35:46.252Z,3.45
2022-11-18T03:38:19.980Z,3.42
2022-11-18T03:40:51.955Z,3.30
2022-11-18T03:43:23.973Z,3.53
2022-11-18T03:46:15.570Z,3.35
2022-11-18T03:48:52.692Z,3.40
2022-11-18T03:51:24.737Z,3.22
2022-11-18T03:53:57.842Z,3.70
2022-11-18T03:56:31.777Z,2.70
2022-11-18T03:59:05.500Z,3.42
2022-11-18T04:01:40.277Z,3.30
2022-11-18T04:04:08.923Z,3.33
2022-11-18T04:06:47.564Z,3.25
2022-11-18T04:09:20.616Z,3.20
2022-11-18T04:12:05.221Z,3.33
2022-11-18T04:14:38.441Z,3.58
2022-11-18T04:17:17.020Z,2.95
2022-11-18T04:19:43.941Z,3.80
2022-11-18T04:22:11.374Z,3.25
2022-11-18T04:24:38.514Z,3.67
2022-11-18T04:27:06.112Z,3.58
2022-11-18T04:29:33.661Z,3.45
2022-11-18T04:32:01.526Z,3.42
2022-11-18T04:34:29.056Z,3.50
2022-11-18T04:36:59.513Z,3.30
2022-11-18T04:42:00.223Z,3.53
2022-11-18T04:44:34.077Z,3.03
2022-11-18T04:47:04.382Z,3.20
2022-11-18T04:51:58.944Z,3.58
2022-11-18T04:54:26.398Z,3.30
2022-11-18T04:56:53.941Z,3.35
2022-11-18T04:59:23.840Z,3.00
2022-11-18T05:01:51.072Z,3.50
2022-11-18T05:04:20.914Z,3.35
2022-11-18T05:06:48.177Z,3.58
2022-11-18T05:09:16.502Z,3.30
2022-11-18T05:12:02.227Z,3.35
2022-11-18T05:14:30.019Z,3.17
2022-11-18T05:16:58.184Z,3.30
2022-11-18T05:19:24.936Z,3.00
2022-11-18T05:21:51.864Z,3.10
2022-11-18T05:24:18.937Z,3.30
2022-11-18T05:26:46.149Z,3.50
2022-11-18T05:29:13.224Z,3.22
2022-11-18T05:31:39.941Z,3.50
2022-11-18T05:34:06.704Z,3.38
2022-11-18T05:36:33.431Z,3.15
2022-11-18T05:39:00.522Z,3.60
2022-11-18T05:41:47.337Z,3.55
2022-11-18T05:44:17.541Z,3.58
2022-11-18T05:46:44.288Z,3.45
2022-11-18T05:49:11.165Z,3.13
2022-11-18T05:51:37.873Z,3.33
2022-11-18T05:54:08.070Z,3.35
2022-11-18T05:56:41.665Z,3.30
2022-11-18T05:59:08.492Z,3.38
2022-11-18T06:01:46.417Z,3.50
2022-11-18T06:04:41.105Z,3.30
2022-11-18T06:07:22.763Z,2.95
2022-11-18T06:09:54.072Z,3.67
2022-11-18T06:12:24.296Z,3.72
2022-11-18T06:15:02.513Z,2.92
2022-11-18T06:17:39.900Z,3.20
2022-11-18T06:20:07.250Z,3.22
2022-11-18T06:22:35.203Z,3.60
2022-11-18T06:25:02.710Z,2.97
2022-11-18T06:27:31.054Z,3.63
2022-11-18T06:29:57.750Z,3.55
2022-11-18T06:32:24.430Z,3.20
2022-11-18T06:34:51.125Z,3.30
2022-11-18T06:37:20.707Z,3.13
2022-11-18T06:39:47.448Z,2.97
2022-11-18T06:42:36.926Z,3.13
2022-11-18T06:45:14.919Z,3.35
2022-11-18T06:47:41.615Z,3.47
2022-11-18T06:50:08.927Z,3.67
2022-11-18T06:52:35.614Z,3.50
2022-11-18T06:55:02.527Z,3.88
2022-11-18T06:57:29.477Z,3.92
2022-11-18T07:00:02.255Z,4.13
2022-11-18T07:02:29.426Z,3.55
2022-11-18T07:04:59.326Z,3.83
2022-11-18T07:07:26.259Z,3.95
2022-11-18T07:09:53.088Z,3.70
2022-11-18T07:12:19.777Z,4.40
2022-11-18T07:14:46.944Z,6.72
2022-11-18T07:17:13.819Z,3.83
2022-11-18T07:19:40.716Z,3.65
2022-11-18T07:22:08.168Z,3.30
2022-11-18T07:24:34.887Z,3.67
2022-11-18T07:27:01.571Z,3.72
2022-11-18T07:29:28.275Z,3.60
2022-11-18T07:31:54.946Z,3.40
2022-11-18T07:34:21.654Z,4.32
2022-11-18T07:36:48.429Z,3.28
2022-11-18T07:39:15.133Z,3.63
2022-11-18T07:41:41.974Z,3.55
2022-11-18T07:44:11.808Z,3.83
2022-11-18T07:46:38.905Z,3.80
2022-11-18T07:49:08.663Z,3.60
2022-11-18T07:51:37.446Z,3.53
2022-11-18T07:54:12.334Z,3.60
2022-11-18T07:56:39.394Z,3.47
2022-11-18T07:59:07.674Z,3.40
2022-11-18T08:01:34.594Z,3.20
2022-11-18T08:04:12.474Z,3.40
2022-11-18T08:06:40.265Z,3.33
2022-11-18T08:09:08.214Z,3.60
2022-11-18T08:11:35.444Z,3.85
2022-11-18T08:14:02.441Z,4.00
2022-11-18T08:16:32.206Z,3.58
2022-11-18T08:19:01.323Z,3.78
2022-11-18T08:21:28.144Z,3.70
2022-11-18T08:23:56.859Z,4.00
2022-11-18T08:26:24.862Z,3.90
2022-11-18T08:28:52.361Z,3.50
2022-11-18T08:31:25.513Z,4.03
2022-11-18T08:34:04.444Z,3.80
2022-11-18T08:36:33.765Z,3.53
2022-11-18T08:39:02.232Z,3.97
2022-11-18T08:41:40.269Z,4.07
2022-11-18T08:44:10.200Z,4.07
2022-11-18T08:46:36.896Z,3.88
2022-11-18T08:49:03.844Z,3.95
2022-11-18T08:51:30.863Z,3.80
2022-11-18T08:53:58.103Z,3.80
2022-11-18T08:56:25.492Z,4.10
2022-11-18T08:58:52.881Z,3.85
2022-11-18T09:01:19.727Z,3.58
2022-11-18T09:03:48.406Z,3.38
2022-11-18T09:06:18.832Z,3.70
2022-11-18T09:08:46.465Z,4.03
2022-11-18T09:11:18.374Z,4.22
2022-11-18T09:14:46.547Z,3.85
2022-11-18T09:16:35.048Z,3.88
2022-11-18T09:19:18.244Z,3.80
2022-11-18T09:21:48.616Z,3.50
2022-11-18T09:24:16.429Z,3.70
2022-11-18T09:26:43.563Z,3.65
2022-11-18T09:29:11.712Z,3.97
2022-11-18T09:31:38.840Z,4.15
2022-11-18T09:34:05.586Z,4.43
2022-11-18T09:36:32.339Z,3.72
2022-11-18T09:39:00.048Z,4.10
2022-11-18T09:41:41.707Z,4.00
2022-11-18T09:44:14.494Z,3.80
2022-11-18T09:46:59.706Z,4.10
2022-11-18T09:49:33.831Z,3.63
2022-11-18T09:52:10.730Z,3.80
2022-11-18T09:54:39.063Z,3.42
2022-11-18T09:57:18.187Z,4.40
2022-11-18T09:59:45.637Z,4.07
2022-11-18T10:02:20.946Z,4.63
2022-11-18T10:04:47.787Z,4.50
2022-11-18T10:07:24.121Z,4.40
2022-11-18T10:09:54.599Z,4.00
2022-11-18T10:15:04.385Z,4.30
2022-11-18T10:17:56.004Z,4.10
2022-11-18T10:20:44.224Z,4.35
2022-11-18T10:23:26.353Z,4.15
2022-11-18T10:25:54.645Z,3.75
2022-11-18T10:28:29.217Z,4.63
2022-11-18T10:31:11.239Z,4.25
2022-11-18T10:33:39.017Z,3.65
2022-11-18T10:36:34.201Z,3.90
2022-11-18T10:39:13.385Z,3.90
2022-11-18T10:41:47.435Z,4.20
2022-11-18T10:44:32.665Z,3.95
2022-11-18T10:47:23.499Z,4.07
2022-11-18T10:49:51.524Z,4.20
2022-11-18T10:52:18.469Z,4.80
2022-11-18T10:54:45.256Z,4.60
2022-11-18T10:57:24.247Z,4.30
2022-11-18T10:59:54.215Z,4.57
2022-11-18T11:02:38.818Z,4.45
2022-11-18T11:05:19.630Z,4.43
2022-11-18T11:07:46.445Z,4.82
2022-11-18T11:10:13.311Z,4.03
2022-11-18T11:13:04.633Z,4.60
2022-11-18T11:15:39.623Z,4.32
2022-11-18T11:18:28.447Z,4.57
2022-11-18T11:20:55.163Z,4.30
2022-11-18T11:23:25.029Z,4.60
2022-11-18T11:29:12.363Z,4.68
2022-11-18T11:31:48.173Z,4.78
2022-11-18T11:34:42.771Z,4.50
2022-11-18T11:37:11.894Z,4.88
2022-11-18T11:40:20.113Z,4.68
2022-11-18T11:43:08.521Z,5.05
2022-11-18T11:45:53.923Z,4.88
2022-11-18T11:48:36.262Z,4.30
2022-11-18T11:51:16.965Z,4.60
2022-11-18T11:54:15.753Z,4.63
2022-11-18T11:56:56.207Z,4.60
2022-11-18T12:02:18.185Z,4.88
2022-11-18T12:04:51.892Z,4.80
2022-11-18T12:07:42.430Z,5.25
2022-11-18T12:10:32.625Z,5.20
2022-11-18T12:13:15.942Z,6.22
2022-11-18T12:15:48.450Z,6.07
2022-11-18T12:18:37.066Z,6.13
2022-11-18T12:21:04.026Z,5.60
2022-11-18T12:23:32.565Z,5.88
2022-11-18T12:26:01.114Z,6.22
2022-11-18T12:28:41.297Z,6.22
2022-11-18T12:31:22.906Z,6.07
2022-11-18T12:33:57.481Z,5.85
2022-11-18T12:36:32.529Z,6.50
2022-11-18T12:39:25.342Z,6.50
2022-11-18T12:42:15.954Z,6.93
2022-11-18T12:44:46.905Z,6.70
2022-11-18T12:47:14.742Z,7.85
2022-11-18T12:49:44.402Z,7.32
2022-11-18T12:52:29.522Z,6.57
2022-11-18T12:55:03.118Z,6.60
2022-11-18T12:57:32.988Z,6.97
2022-11-18T13:00:27.512Z,7.43
2022-11-18T13:02:57.207Z,7.45
2022-11-18T13:05:29.509Z,7.25
2022-11-18T13:08:14.420Z,8.48
2022-11-18T13:10:44.408Z,9.13
2022-11-18T13:13:23.336Z,8.35
2022-11-18T13:16:09.857Z,8.23
2022-11-18T13:18:51.789Z,7.97
2022-11-18T13:21:45.479Z,7.80
2022-11-18T13:24:17.775Z,7.65
2022-11-18T13:26:46.159Z,7.15
2022-11-18T13:29:26.849Z,7.32
2022-11-18T13:32:08.581Z,7.10
2022-11-18T13:34:47.168Z,6.57
2022-11-18T13:37:29.241Z,6.85
2022-11-18T13:39:56.804Z,7.13
2022-11-18T13:42:25.844Z,6.95
2022-11-18T13:44:59.308Z,6.88
2022-11-18T13:47:52.751Z,7.28
2022-11-18T13:50:52.637Z,6.75
2022-11-18T13:53:39.062Z,6.43
2022-11-18T13:56:07.159Z,6.43
2022-11-18T13:59:02.500Z,7.53
2022-11-18T14:01:29.903Z,6.80
2022-11-18T14:04:05.172Z,6.85
2022-11-18T14:06:37.021Z,6.97
2022-11-18T14:09:18.009Z,8.20
2022-11-18T14:11:56.922Z,7.55
2022-11-18T14:14:38.947Z,7.90
2022-11-18T14:17:17.576Z,7.95
2022-11-18T14:19:45.226Z,7.80
2022-11-18T14:22:16.510Z,7.70
2022-11-18T14:24:44.210Z,8.00
2022-11-18T14:27:43.016Z,8.07
2022-11-18T14:30:29.826Z,7.65
2022-11-18T14:33:15.342Z,7.57
2022-11-18T14:35:44.691Z,7.30
2022-11-18T14:38:41.042Z,7.50
2022-11-18T14:41:44.708Z,7.13
2022-11-18T14:44:13.584Z,6.63
2022-11-18T14:46:43.237Z,7.13
2022-11-18T14:49:19.776Z,6.97
2022-11-18T14:51:47.498Z,6.78
2022-11-18T14:54:18.248Z,7.07
2022-11-18T14:56:49.973Z,6.95
2022-11-18T14:59:19.056Z,6.90
2022-11-18T15:01:47.098Z,7.35
2022-11-18T15:04:17.270Z,6.97
2022-11-18T15:09:12.209Z,7.80
2022-11-18T15:11:39.009Z,6.13
2022-11-18T15:14:05.733Z,6.38
2022-11-18T15:16:34.486Z,6.85
2022-11-18T15:19:06.057Z,6.68
2022-11-18T15:21:34.087Z,6.28
2022-11-18T15:24:01.021Z,7.32
2022-11-18T15:26:34.137Z,7.18
2022-11-18T15:29:00.817Z,7.03
2022-11-18T15:31:27.653Z,7.03
2022-11-18T15:33:54.654Z,7.38
2022-11-18T15:36:25.992Z,7.88
2022-11-18T15:38:54.339Z,8.65
2022-11-18T15:41:25.221Z,8.60
2022-11-18T15:43:53.126Z,8.23
2022-11-18T15:46:21.626Z,7.43
2022-11-18T15:48:51.027Z,7.95
2022-11-18T15:51:18.090Z,7.27
2022-11-18T15:53:44.821Z,7.22
2022-11-18T15:56:20.324Z,6.72
2022-11-18T15:58:56.870Z,6.53
2022-11-18T16:01:25.506Z,7.07
2022-11-18T16:03:52.429Z,6.72
2022-11-18T16:06:19.291Z,6.40
2022-11-18T16:08:46.107Z,6.40
2022-11-18T16:11:33.709Z,6.80
2022-11-18T16:14:04.470Z,7.40
2022-11-18T16:16:32.491Z,6.60
2022-11-18T16:19:01.422Z,7.05
2022-11-18T16:21:29.296Z,7.82
2022-11-18T16:23:57.953Z,8.50
2022-11-18T16:26:25.635Z,9.60
2022-11-18T16:28:53.226Z,9.85
2022-11-18T16:31:39.481Z,8.82
2022-11-18T16:34:14.192Z,8.25
2022-11-18T16:36:43.485Z,8.13
2022-11-18T16:39:40.628Z,7.97
2022-11-18T16:42:08.885Z,7.15
2022-11-18T16:44:36.796Z,7.32
2022-11-18T16:47:12.275Z,7.45
2022-11-18T16:49:41.257Z,7.82
2022-11-18T16:52:08.800Z,9.65
2022-11-18T16:54:38.275Z,7.85
2022-11-18T16:57:08.922Z,8.13
2022-11-18T16:59:35.586Z,8.20
2022-11-18T17:02:03.032Z,7.90
2022-11-18T17:04:30.758Z,7.18
2022-11-18T17:06:59.833Z,7.07
2022-11-18T17:09:26.881Z,7.15
2022-11-18T17:11:54.952Z,7.18
2022-11-18T17:14:22.626Z,7.88
2022-11-18T17:16:52.755Z,8.00
2022-11-18T17:19:21.729Z,8.07
2022-11-18T17:21:49.645Z,7.90
2022-11-18T17:24:19.690Z,8.57
2022-11-18T17:26:48.423Z,8.25
2022-11-18T17:29:15.431Z,7.93
2022-11-18T17:31:42.920Z,7.35
2022-11-18T17:34:14.656Z,7.85
2022-11-18T17:36:42.148Z,7.57
2022-11-18T17:39:11.085Z,8.27
2022-11-18T17:41:56.892Z,7.70
2022-11-18T17:44:24.482Z,6.80
2022-11-18T17:46:51.295Z,7.85
2022-11-18T17:49:18.978Z,7.00
2022-11-18T17:51:48.697Z,7.15
2022-11-18T17:54:15.703Z,8.77
2022-11-18T17:56:43.122Z,8.10
2022-11-18T17:59:09.850Z,8.32
2022-11-18T18:01:36.797Z,8.73
2022-11-18T18:04:03.965Z,9.45
2022-11-18T18:06:30.794Z,8.93
2022-11-18T18:08:58.269Z,8.98
2022-11-18T18:11:25.878Z,8.40
2022-11-18T18:14:11.278Z,8.68
2022-11-18T18:16:48.068Z,9.30
2022-11-18T18:19:17.739Z,12.90
2022-11-18T18:21:44.720Z,11.60
2022-11-18T18:24:12.936Z,12.43
2022-11-18T18:26:39.667Z,11.48
2022-11-18T18:29:06.581Z,11.80
2022-11-18T18:31:35.486Z,12.73
2022-11-18T18:34:02.352Z,12.43
2022-11-18T18:36:29.227Z,12.20
2022-11-18T18:38:58.159Z,11.18
2022-11-18T18:41:24.895Z,12.00
2022-11-18T18:43:51.638Z,13.15
2022-11-18T18:46:31.749Z,10.88
2022-11-18T18:49:00.370Z,11.30
2022-11-18T18:51:28.594Z,12.02
2022-11-18T18:53:56.608Z,12.43
2022-11-18T18:56:23.427Z,14.30
2022-11-18T18:58:50.152Z,12.13
2022-11-18T19:01:19.604Z,13.93
2022-11-18T19:03:46.607Z,13.13
2022-11-18T19:06:50.100Z,12.07
2022-11-18T19:09:09.014Z,10.73
2022-11-18T19:11:55.027Z,12.90
2022-11-18T19:14:22.439Z,11.70
2022-11-18T19:16:49.642Z,12.25
2022-11-18T19:19:39.505Z,11.77
2022-11-18T19:22:07.385Z,11.13
2022-11-18T19:24:48.606Z,12.32
2022-11-18T19:27:17.068Z,12.63
2022-11-18T19:29:44.236Z,12.98
2022-11-18T19:32:10.993Z,13.15
2022-11-18T19:34:37.677Z,12.25
2022-11-18T19:37:04.508Z,11.73
2022-11-18T19:39:31.371Z,13.43
2022-11-18T19:41:58.734Z,11.35
2022-11-18T19:44:25.498Z,11.68
2022-11-18T19:46:52.229Z,14.55
2022-11-18T19:49:19.161Z,12.70
2022-11-18T19:51:46.024Z,12.73
2022-11-18T19:54:12.688Z,14.20
2022-11-18T19:56:39.569Z,13.77
2022-11-18T19:59:06.283Z,12.52
2022-11-18T20:01:33.138Z,13.82
2022-11-18T20:04:05.563Z,13.20
2022-11-18T20:06:35.046Z,13.65
2022-11-18T20:09:02.502Z,13.67
2022-11-18T20:11:29.490Z,12.75
2022-11-18T20:13:56.715Z,13.32
2022-11-18T20:16:25.262Z,13.25
2022-11-18T20:18:54.898Z,13.82
2022-11-18T20:21:23.472Z,13.32
2022-11-18T20:23:55.782Z,13.65
2022-11-18T20:26:25.931Z,13.52
2022-11-18T20:28:57.235Z,14.00
2022-11-18T20:31:24.944Z,13.43
2022-11-18T20:33:53.936Z,12.55
2022-11-18T20:36:25.011Z,13.50
2022-11-18T20:38:57.021Z,13.50
2022-11-18T20:41:24.967Z,15.25
2022-11-18T20:43:51.935Z,14.43
2022-11-18T20:46:21.471Z,14.98
2022-11-18T20:48:49.429Z,15.00
2022-11-18T20:51:23.235Z,14.77
2022-11-18T20:53:51.130Z,14.30
2022-11-18T20:56:20.510Z,14.88
2022-11-18T20:58:48.030Z,14.90
2022-11-18T21:01:22.233Z,14.35
2022-11-18T21:03:59.574Z,15.18
2022-11-18T21:06:29.002Z,14.60
2022-11-18T21:09:00.925Z,14.32
2022-11-18T21:11:28.094Z,14.60
2022-11-18T21:14:17.234Z,14.93
2022-11-18T21:16:48.631Z,16.20
2022-11-18T21:19:15.367Z,14.77
2022-11-18T21:21:45.075Z,13.90
2022-11-18T21:24:23.135Z,13.82
2022-11-18T21:26:51.992Z,14.02
2022-11-18T21:29:19.349Z,13.10
2022-11-18T21:31:49.621Z,13.65
2022-11-18T21:34:17.534Z,12.77
2022-11-18T21:36:50.193Z,12.25
2022-11-18T21:39:20.058Z,12.70
2022-11-18T21:41:52.038Z,12.10
2022-11-18T21:44:21.852Z,11.77
2022-11-18T21:46:48.540Z,11.10
2022-11-18T21:49:15.214Z,12.55
2022-11-18T21:51:43.805Z,11.88
2022-11-18T21:54:12.478Z,10.32
2022-11-18T21:56:39.143Z,10.95
2022-11-18T21:59:07.437Z,11.10
2022-11-18T22:01:34.264Z,13.07
2022-11-18T22:04:05.122Z,10.18
2022-11-18T22:06:34.150Z,13.20
2022-11-18T22:09:03.269Z,11.88
2022-11-18T22:11:30.056Z,11.82
2022-11-18T22:13:57.171Z,11.25
2022-11-18T22:16:25.521Z,11.60
2022-11-18T22:18:59.274Z,11.63
2022-11-18T22:21:28.088Z,11.32
2022-11-18T22:23:59.711Z,10.30
2022-11-18T22:26:26.766Z,11.48
2022-11-18T22:28:55.428Z,10.30
2022-11-18T22:31:23.178Z,11.07
2022-11-18T22:33:51.334Z,11.10
2022-11-18T22:36:20.278Z,11.65
2022-11-18T22:38:47.441Z,12.65
2022-11-18T22:41:35.262Z,11.25
2022-11-18T22:44:07.406Z,12.60
2022-11-18T22:46:35.982Z,11.50
2022-11-18T22:49:02.825Z,13.10
2022-11-18T22:51:29.537Z,11.93
2022-11-18T22:54:15.857Z,11.93
2022-11-18T22:56:43.366Z,12.10
2022-11-18T22:59:13.080Z,12.90
2022-11-18T23:01:40.167Z,12.43
2022-11-18T23:04:07.392Z,12.52
2022-11-18T23:06:34.172Z,11.95
2022-11-18T23:09:02.716Z,12.48
2022-11-18T23:11:49.072Z,12.63
2022-11-18T23:14:16.006Z,13.23
2022-11-18T23:16:42.991Z,12.88
2022-11-18T23:19:17.476Z,12.38
2022-11-18T23:21:45.281Z,13.10
2022-11-18T23:24:17.744Z,13.25
2022-11-18T23:26:45.723Z,14.30
2022-11-18T23:29:13.688Z,13.35
2022-11-18T23:31:42.805Z,14.35
2022-11-18T23:34:12.168Z,13.23
2022-11-18T23:36:39.238Z,13.55
2022-11-18T23:39:06.480Z,12.93
2022-11-18T23:41:33.295Z,13.40
2022-11-18T23:44:00.035Z,13.52
2022-11-18T23:46:27.631Z,12.57
2022-11-18T23:48:54.406Z,14.07
2022-11-18T23:51:23.326Z,13.77
2022-11-18T23:53:55.710Z,13.68
2022-11-18T23:56:25.028Z,14.15
2022-11-18T23:58:53.701Z,14.15
